Time;durP1;ratioP1;P1;durP2;ratioP2;P2;SDS_P1;SDS_P2;PMS_P1;PMS_P2;Temp;Humidity;BMP_temperature;BMP_pressure;BME280_temperature;BME280_humidity;BME280_pressure;Samples;Min_cycle;Max_cycle;Signal;HPM_P1;HPM_P2
2021/07/03 00:01:19;;;;;;;2.02;1.00;;;;;;;15.28;81.44;95338.15;1786967;80;21050;-59
2021/07/03 00:03:46;;;;;;;3.00;1.15;;;;;;;15.23;81.12;95340.60;1786762;80;21619;-59
2021/07/03 00:06:13;;;;;;;2.85;1.00;;;;;;;15.17;81.46;95336.84;1787052;80;21050;-59
2021/07/03 00:08:40;;;;;;;4.25;1.20;;;;;;;15.18;82.00;95337.27;1786893;80;21007;-59
2021/07/03 00:11:08;;;;;;;2.77;1.32;;;;;;;15.21;82.08;95333.15;1786866;80;21075;-59
2021/07/03 00:13:35;;;;;;;1.65;1.32;;;;;;;15.24;82.19;95336.53;1787267;80;21019;-58
2021/07/03 00:16:03;;;;;;;1.45;1.30;;;;;;;15.25;82.28;95331.64;1786893;80;21015;-58
2021/07/03 00:18:30;;;;;;;1.52;1.10;;;;;;;15.29;82.99;95337.20;1787217;80;21379;-59
2021/07/03 00:20:56;;;;;;;2.80;1.30;;;;;;;15.25;82.61;95344.07;1787445;80;21055;-59
2021/07/03 00:23:23;;;;;;;1.80;1.35;;;;;;;15.27;82.83;95338.20;1786762;80;20991;-59
2021/07/03 00:25:49;;;;;;;1.60;1.25;;;;;;;15.27;82.29;95343.52;1786932;80;21023;-58
2021/07/03 00:28:16;;;;;;;3.33;1.40;;;;;;;15.21;82.58;95337.14;1787135;80;21560;-59
2021/07/03 00:30:42;;;;;;;1.32;1.22;;;;;;;15.21;82.27;95333.15;1787025;80;21003;-59
2021/07/03 00:33:09;;;;;;;4.95;1.67;;;;;;;15.26;82.29;95340.00;1754902;80;21457;-59
2021/07/03 00:35:36;;;;;;;1.45;1.30;;;;;;;15.31;82.02;95331.84;1787240;80;21003;-59
2021/07/03 00:38:03;;;;;;;1.87;1.30;;;;;;;15.26;82.00;95332.50;1786663;80;21011;-59
2021/07/03 00:40:30;;;;;;;3.37;1.22;;;;;;;15.30;82.93;95326.14;1787239;80;21468;-59
2021/07/03 00:42:57;;;;;;;4.37;1.32;;;;;;;15.27;82.20;95319.59;1787186;80;21473;-59
2021/07/03 00:45:25;;;;;;;2.55;1.60;;;;;;;15.27;83.33;95315.61;1786710;80;21050;-59
2021/07/03 00:47:52;;;;;;;2.98;1.50;;;;;;;15.34;83.11;95317.09;1786863;80;21512;-59
2021/07/03 00:50:20;;;;;;;5.08;1.32;;;;;;;15.43;82.78;95318.52;1787189;80;21010;-59
2021/07/03 00:52:47;;;;;;;2.47;1.42;;;;;;;15.46;82.60;95317.91;1786641;80;21086;-59
2021/07/03 00:55:17;;;;;;;1.95;1.60;;;;;;;15.49;82.65;95325.75;1786639;80;21079;-59
2021/07/03 00:57:45;;;;;;;7.67;1.40;;;;;;;15.53;82.10;95334.01;1786957;80;21043;-59
2021/07/03 01:00:14;;;;;;;1.42;1.20;;;;;;;15.52;81.88;95327.41;1787149;80;21018;-59
2021/07/03 01:02:41;;;;;;;1.20;1.10;;;;;;;15.52;81.61;95328.30;1787187;80;21026;-59
2021/07/03 01:05:09;;;;;;;1.32;1.10;;;;;;;15.54;81.82;95329.08;1787136;80;20963;-59
2021/07/03 01:07:37;;;;;;;1.45;0.85;;;;;;;15.54;81.49;95332.20;1754499;80;21122;-58
2021/07/03 01:10:08;;;;;;;1.82;1.00;;;;;;;15.55;81.56;95324.18;1787214;80;20995;-58
2021/07/03 01:12:35;;;;;;;1.02;0.95;;;;;;;15.54;81.84;95323.76;1784984;80;21043;-59
2021/07/03 01:15:02;;;;;;;0.80;0.80;;;;;;;15.54;81.43;95317.58;1754744;80;21003;-59
2021/07/03 01:17:30;;;;;;;1.87;0.90;;;;;;;15.52;81.15;95322.98;1785829;80;21019;-59
2021/07/03 01:19:57;;;;;;;3.00;0.90;;;;;;;15.49;80.87;95320.90;1786743;80;21087;-59
2021/07/03 01:22:24;;;;;;;1.00;1.00;;;;;;;15.45;80.77;95317.99;1786963;80;21023;-59
2021/07/03 01:24:51;;;;;;;3.98;1.15;;;;;;;15.42;80.89;95318.98;1786799;80;21109;-59
2021/07/03 01:27:17;;;;;;;1.55;0.90;;;;;;;15.35;81.47;95318.84;1786956;80;21059;-58
2021/07/03 01:29:45;;;;;;;0.70;0.70;;;;;;;15.22;82.52;95320.25;1787205;80;21556;-59
2021/07/03 01:32:12;;;;;;;1.15;1.05;;;;;;;15.15;82.10;95333.80;1787081;80;21011;-59
2021/07/03 01:34:39;;;;;;;0.80;0.80;;;;;;;15.02;82.92;95333.91;1786961;80;21038;-59
2021/07/03 01:37:08;;;;;;;3.83;1.20;;;;;;;14.95;83.55;95330.23;1786691;80;21030;-59
2021/07/03 01:39:36;;;;;;;0.80;0.80;;;;;;;14.93;83.86;95333.79;1786759;80;21074;-58
2021/07/03 01:42:06;;;;;;;1.00;0.80;;;;;;;14.98;84.07;95336.74;1787163;80;20975;-59
2021/07/03 01:44:32;;;;;;;1.92;0.82;;;;;;;15.04;84.06;95335.16;1787267;80;21562;-59
2021/07/03 01:47:02;;;;;;;2.40;0.80;;;;;;;15.10;84.02;95337.58;1754767;80;21050;-58
2021/07/03 01:49:35;;;;;;;1.92;0.80;;;;;;;15.10;83.75;95334.45;1786958;80;20998;-58
2021/07/03 01:52:02;;;;;;;;;;;;;;;15.14;84.17;95330.76;1790040;80;21468;-59
2021/07/03 01:54:29;;;;;;;0.75;0.60;;;;;;;15.19;84.41;95334.53;1786505;80;20105;-60
2021/07/03 01:56:58;;;;;;;3.22;1.02;;;;;;;15.20;84.28;95342.06;1787346;80;21030;-59
2021/07/03 01:59:31;;;;;;;2.02;0.70;;;;;;;15.28;84.31;95340.81;1786464;80;21077;-59
2021/07/03 02:02:02;;;;;;;3.65;0.88;;;;;;;15.31;83.97;95335.83;1786507;80;20991;-58
2021/07/03 02:04:30;;;;;;;1.95;0.60;;;;;;;15.31;83.41;95331.38;1787081;80;21023;-59
2021/07/03 02:06:58;;;;;;;2.15;0.90;;;;;;;15.31;82.92;95336.69;1787218;80;20983;-58
2021/07/03 02:09:27;;;;;;;0.88;0.70;;;;;;;15.30;82.81;95334.97;1787052;80;21497;-59
2021/07/03 02:11:55;;;;;;;0.50;0.50;;;;;;;15.42;82.93;95334.05;1787278;80;21030;-59
2021/07/03 02:14:24;;;;;;;0.53;0.53;;;;;;;15.45;83.05;95340.12;1785934;80;21006;-59
2021/07/03 02:16:55;;;;;;;1.22;0.65;;;;;;;15.37;81.44;95331.57;1784242;80;21053;-59
2021/07/03 02:19:22;;;;;;;1.40;0.70;;;;;;;15.33;81.19;95337.97;1786816;80;21106;-59
2021/07/03 02:21:50;;;;;;;0.70;0.70;;;;;;;15.24;81.30;95335.67;1786828;80;20976;-59
2021/07/03 02:24:18;;;;;;;0.60;0.60;;;;;;;15.34;81.98;95337.88;1785787;80;21078;-59
2021/07/03 02:26:45;;;;;;;2.42;0.50;;;;;;;15.28;81.01;95334.16;1787161;80;21015;-59
2021/07/03 02:29:12;;;;;;;0.75;0.60;;;;;;;15.07;81.27;95335.05;1787348;80;20971;-59
2021/07/03 02:31:38;;;;;;;0.50;0.50;;;;;;;15.07;81.31;95337.71;1786998;80;21449;-59
2021/07/03 02:34:05;;;;;;;1.82;0.78;;;;;;;14.99;81.54;95339.31;1787044;80;21042;-58
2021/07/03 02:36:33;;;;;;;1.67;0.70;;;;;;;14.97;82.12;95341.20;1786752;80;21018;-60
2021/07/03 02:39:02;;;;;;;2.77;0.65;;;;;;;14.98;83.13;95343.37;1786502;80;21047;-59
2021/07/03 02:41:30;;;;;;;3.70;1.70;;;;;;;15.03;83.09;95346.72;1786186;80;21039;-59
2021/07/03 02:43:59;;;;;;;1.55;0.80;;;;;;;15.02;83.02;95344.53;1786770;80;20992;-59
2021/07/03 02:46:27;;;;;;;4.03;0.80;;;;;;;15.02;83.67;95348.52;1787072;80;20975;-59
2021/07/03 02:48:54;;;;;;;2.75;0.70;;;;;;;15.10;83.74;95344.22;1787022;80;20995;-59
2021/07/03 02:51:23;;;;;;;3.08;0.90;;;;;;;15.20;83.31;95348.70;1786567;80;21046;-59
2021/07/03 02:53:50;;;;;;;3.17;1.12;;;;;;;15.15;83.12;95344.44;1786909;80;21115;-59
2021/07/03 02:56:17;;;;;;;1.55;0.80;;;;;;;15.22;83.63;95353.47;1787074;80;21003;-59
2021/07/03 02:58:44;;;;;;;2.30;0.70;;;;;;;15.29;82.98;95356.28;1786572;80;21030;-59
2021/07/03 03:01:12;;;;;;;3.33;0.80;;;;;;;15.28;82.42;95354.09;1786745;80;21022;-58
2021/07/03 03:03:42;;;;;;;2.22;0.90;;;;;;;15.30;81.95;95356.70;1787031;80;21022;-59
2021/07/03 03:06:12;;;;;;;2.42;0.70;;;;;;;15.26;81.90;95350.63;1786653;80;21103;-59
2021/07/03 03:08:39;;;;;;;0.80;0.80;;;;;;;15.26;82.38;95361.73;1786950;80;20979;-59
2021/07/03 03:11:07;;;;;;;1.77;0.78;;;;;;;15.26;82.16;95357.75;1787348;80;21030;-59
2021/07/03 03:13:35;;;;;;;0.95;0.60;;;;;;;15.16;81.96;95353.27;1786665;80;21019;-59
2021/07/03 03:16:04;;;;;;;0.70;0.70;;;;;;;15.18;82.10;95352.74;1787345;80;21473;-59
2021/07/03 03:18:31;;;;;;;2.75;0.57;;;;;;;15.21;82.31;95354.41;1792748;80;21038;-59
2021/07/03 03:20:58;;;;;;;1.37;0.65;;;;;;;15.12;81.61;95354.34;1794883;80;21062;-58
2021/07/03 03:23:25;;;;;;;2.72;0.80;;;;;;;15.09;82.58;95355.76;1795223;80;21053;-59
2021/07/03 03:25:52;;;;;;;1.65;0.62;;;;;;;15.09;83.40;95350.45;1795011;80;21065;-59
2021/07/03 03:28:20;;;;;;;0.93;0.62;;;;;;;15.13;83.54;95355.58;1795125;80;21074;-58
2021/07/03 03:30:47;;;;;;;0.78;0.75;;;;;;;15.17;83.47;95356.78;1795450;80;21480;-59
2021/07/03 03:33:16;;;;;;;5.15;0.80;;;;;;;15.16;82.91;95359.91;1794472;80;21018;-59
2021/07/03 03:35:43;;;;;;;3.27;1.00;;;;;;;15.18;83.10;95355.88;1795532;80;20978;-59
2021/07/03 03:38:10;;;;;;;0.80;0.80;;;;;;;15.20;83.07;95359.34;1795107;80;21053;-59
2021/07/03 03:40:37;;;;;;;1.10;0.90;;;;;;;15.17;82.72;95360.33;1795442;80;21118;-59
2021/07/03 03:43:03;;;;;;;1.40;1.27;;;;;;;15.16;82.93;95359.91;1795381;80;20978;-59
2021/07/03 03:45:30;;;;;;;1.47;1.37;;;;;;;15.21;82.79;95360.59;1795370;80;21159;-59
2021/07/03 03:47:59;;;;;;;2.60;0.98;;;;;;;15.27;82.61;95369.66;1795500;80;21090;-58
2021/07/03 03:50:26;;;;;;;0.90;0.90;;;;;;;15.28;82.01;95367.39;1795679;80;21436;-58
2021/07/03 03:52:53;;;;;;;2.05;1.05;;;;;;;15.21;82.13;95363.24;1795456;80;21622;-59
2021/07/03 03:55:21;;;;;;;3.52;0.90;;;;;;;15.25;82.39;95362.67;1795559;80;20986;-59
2021/07/03 03:57:48;;;;;;;1.00;0.90;;;;;;;15.26;82.07;95362.59;1795242;80;21099;-59
2021/07/03 04:00:18;;;;;;;3.27;0.90;;;;;;;15.25;82.45;95367.52;1795457;80;21054;-59
2021/07/03 04:02:45;;;;;;;2.05;0.78;;;;;;;15.26;82.46;95363.92;1795399;80;20999;-58
2021/07/03 04:05:15;;;;;;;1.52;1.10;;;;;;;15.36;82.54;95365.75;1794664;80;20986;-59
2021/07/03 04:07:43;;;;;;;1.75;1.60;;;;;;;15.38;82.37;95365.22;1795560;80;21010;-59
2021/07/03 04:10:13;;;;;;;3.17;1.12;;;;;;;15.46;82.31;95367.56;1795399;80;21129;-59
2021/07/03 04:12:41;;;;;;;1.32;1.22;;;;;;;15.42;82.28;95368.61;1795666;80;20995;-59
2021/07/03 04:15:10;;;;;;;1.37;1.27;;;;;;;15.42;81.77;95368.61;1795532;80;20978;-58
2021/07/03 04:17:38;;;;;;;2.08;1.15;;;;;;;15.28;82.19;95369.19;1795540;80;21038;-59
2021/07/03 04:20:07;;;;;;;2.05;1.15;;;;;;;15.33;82.20;95366.73;1795461;80;21006;-58
2021/07/03 04:22:35;;;;;;;3.10;1.30;;;;;;;15.38;82.06;95363.03;1795333;80;20994;-59
2021/07/03 04:25:05;;;;;;;2.98;1.40;;;;;;;15.34;82.08;95359.15;1795099;80;21023;-59
2021/07/03 04:27:35;;;;;;;2.50;1.30;;;;;;;15.35;82.43;95358.71;1795689;80;20959;-59
2021/07/03 04:30:05;;;;;;;1.22;1.10;;;;;;;15.30;82.90;95362.88;1794927;80;21512;-59
2021/07/03 04:32:33;;;;;;;2.72;1.27;;;;;;;15.30;82.78;95361.55;1795735;80;20999;-59
2021/07/03 04:34:59;;;;;;;2.87;1.02;;;;;;;15.29;82.86;95364.27;1795189;80;21540;-59
2021/07/03 04:37:26;;;;;;;1.47;1.25;;;;;;;15.29;82.88;95360.27;1795488;80;20975;-59
2021/07/03 04:39:53;;;;;;;1.65;1.55;;;;;;;15.27;83.28;95358.13;1795310;80;21033;-59
2021/07/03 04:42:20;;;;;;;1.72;1.45;;;;;;;15.25;83.29;95361.34;1795852;80;21011;-59
2021/07/03 04:44:46;;;;;;;1.50;1.27;;;;;;;15.17;83.06;95362.09;1795077;80;21480;-59
2021/07/03 04:47:13;;;;;;;1.52;1.42;;;;;;;15.11;84.19;95357.42;1795741;80;20990;-59
2021/07/03 04:49:39;;;;;;;2.08;1.20;;;;;;;15.10;83.74;95354.38;1795208;80;21071;-59
2021/07/03 04:52:07;;;;;;;2.50;1.30;;;;;;;15.14;83.65;95357.77;1795648;80;20947;-59
2021/07/03 04:54:33;;;;;;;2.20;1.10;;;;;;;15.19;83.51;95356.26;1795357;80;20999;-59
2021/07/03 04:57:11;;;;;;;1.77;1.10;;;;;;;15.20;83.17;95360.20;1795247;80;21018;-59
2021/07/03 04:59:42;;;;;;;1.30;1.20;;;;;;;15.22;83.03;95358.34;1795212;80;21014;-59
2021/07/03 05:02:13;;;;;;;1.50;1.40;;;;;;;15.26;82.88;95360.41;1795690;80;20966;-59
2021/07/03 05:04:44;;;;;;;2.12;1.25;;;;;;;15.26;82.66;95362.59;1795218;80;21018;-59
2021/07/03 05:07:11;;;;;;;1.37;1.27;;;;;;;15.22;82.80;95362.77;1795545;80;20978;-59
2021/07/03 05:09:39;;;;;;;1.27;1.17;;;;;;;15.24;82.78;95364.44;1794100;80;21097;-59
2021/07/03 05:12:07;;;;;;;1.17;1.07;;;;;;;15.31;82.86;95371.72;1795698;80;21038;-59
2021/07/03 05:14:33;;;;;;;2.12;1.22;;;;;;;15.36;82.63;95374.58;1795535;80;21062;-59
2021/07/03 05:17:01;;;;;;;2.33;1.12;;;;;;;15.41;82.44;95377.05;1795418;80;20987;-59
2021/07/03 05:19:27;;;;;;;2.12;1.22;;;;;;;15.43;82.12;95377.00;1795330;80;21046;-59
2021/07/03 05:21:54;;;;;;;1.12;1.05;;;;;;;15.42;81.84;95379.24;1795538;80;21067;-59
2021/07/03 05:24:20;;;;;;;1.42;1.30;;;;;;;15.41;82.09;95377.05;1795403;80;21010;-59
2021/07/03 05:26:47;;;;;;;2.60;1.07;;;;;;;15.39;82.18;95384.70;1795085;80;21011;-58
2021/07/03 05:29:14;;;;;;;1.60;1.05;;;;;;;15.41;82.40;95379.72;1795569;80;21476;-59
2021/07/03 05:31:41;;;;;;;0.90;0.90;;;;;;;15.39;82.36;95383.36;1795207;80;21030;-59
2021/07/03 05:34:07;;;;;;;2.00;1.00;;;;;;;15.41;82.53;95380.19;1795349;80;21034;-59
2021/07/03 05:36:34;;;;;;;1.05;0.95;;;;;;;15.41;82.24;95379.72;1795155;80;21023;-59
2021/07/03 05:39:04;;;;;;;1.15;1.00;;;;;;;15.43;82.01;95383.19;1795145;80;20967;-59
2021/07/03 05:41:29;;;;;;;1.90;1.02;;;;;;;15.47;82.14;95380.81;1795573;80;21050;-59
2021/07/03 05:43:55;;;;;;;1.00;0.90;;;;;;;15.52;82.29;95384.14;1795167;80;21070;-59
2021/07/03 05:46:22;;;;;;;1.50;0.90;;;;;;;15.56;82.33;95384.39;1795525;80;21014;-59
2021/07/03 05:48:48;;;;;;;1.12;1.00;;;;;;;15.58;82.27;95384.34;1795638;80;21006;-59
2021/07/03 05:51:15;;;;;;;1.05;0.82;;;;;;;15.64;81.83;95374.77;1795287;80;21018;-59
2021/07/03 05:53:41;;;;;;;0.88;0.82;;;;;;;15.75;81.74;95382.35;1794901;80;21125;-60
2021/07/03 05:56:08;;;;;;;1.85;0.90;;;;;;;15.86;81.42;95389.40;1795473;80;21042;-59
2021/07/03 05:58:35;;;;;;;0.80;0.80;;;;;;;15.90;81.00;95382.14;1795236;80;21026;-59
2021/07/03 06:01:02;;;;;;;1.02;0.93;;;;;;;15.93;80.94;95388.21;1794970;80;21567;-59
2021/07/03 06:03:28;;;;;;;1.67;1.05;;;;;;;15.95;81.03;95384.13;1795093;80;21026;-58
2021/07/03 06:05:55;;;;;;;2.08;1.00;;;;;;;16.01;81.22;95391.40;1795527;80;21002;-59
2021/07/03 06:08:21;;;;;;;1.17;1.00;;;;;;;16.06;81.13;95384.55;1795334;80;21026;-59
2021/07/03 06:10:48;;;;;;;1.12;1.10;;;;;;;16.10;81.05;95389.27;1795250;80;21497;-59
2021/07/03 06:13:14;;;;;;;2.20;0.68;;;;;;;16.12;80.76;95394.92;1795164;80;21090;-59
2021/07/03 06:15:41;;;;;;;0.60;0.60;;;;;;;16.15;80.20;95388.16;1795028;80;21069;-59
2021/07/03 06:18:08;;;;;;;0.80;0.80;;;;;;;15.99;79.78;95389.73;1794175;80;20995;-59
2021/07/03 06:20:34;;;;;;;0.80;0.80;;;;;;;15.85;80.42;95390.78;1786845;80;21142;-59
2021/07/03 06:23:01;;;;;;;1.85;1.10;;;;;;;15.87;80.88;95392.45;1786978;80;20999;-59
2021/07/03 06:25:28;;;;;;;1.15;1.00;;;;;;;15.91;80.88;95393.20;1786692;80;21108;-59
2021/07/03 06:27:54;;;;;;;0.90;0.82;;;;;;;15.88;81.07;95404.84;1786822;80;20983;-59
2021/07/03 06:30:21;;;;;;;1.35;1.10;;;;;;;15.79;80.88;95401.22;1786837;80;21070;-59
2021/07/03 06:32:48;;;;;;;2.47;1.07;;;;;;;15.69;81.86;95406.06;1787166;80;21489;-59
2021/07/03 06:35:14;;;;;;;1.10;1.10;;;;;;;15.62;81.46;95415.66;1786966;80;21090;-59
2021/07/03 06:37:41;;;;;;;2.20;1.27;;;;;;;15.58;81.53;95426.42;1786795;80;21405;-59
2021/07/03 06:40:09;;;;;;;1.50;0.80;;;;;;;15.48;82.24;95423.74;1786896;80;21019;-59
2021/07/03 06:42:35;;;;;;;2.25;1.30;;;;;;;15.36;82.18;95417.11;1787084;80;20999;-59
2021/07/03 06:45:03;;;;;;;1.62;1.20;;;;;;;15.24;83.09;95419.40;1787091;80;21078;-59
2021/07/03 06:47:30;;;;;;;1.47;1.22;;;;;;;15.24;83.19;95424.25;1787129;80;21534;-59
2021/07/03 06:49:56;;;;;;;1.30;1.20;;;;;;;15.31;83.66;95412.91;1786604;80;21010;-59
2021/07/03 06:52:23;;;;;;;1.30;1.20;;;;;;;15.34;83.97;95408.80;1787148;80;21045;-59
2021/07/03 06:54:49;;;;;;;1.02;0.90;;;;;;;15.42;83.51;95412.04;1786704;80;21015;-58
2021/07/03 06:57:16;;;;;;;1.25;1.15;;;;;;;15.46;82.77;95408.31;1786773;80;21572;-59
2021/07/03 06:59:42;;;;;;;2.20;1.22;;;;;;;15.44;82.71;95404.84;1786997;80;21019;-58
2021/07/03 07:02:09;;;;;;;1.37;1.27;;;;;;;15.50;83.09;95406.41;1786798;80;21031;-59
2021/07/03 07:04:36;;;;;;;1.12;0.90;;;;;;;15.59;83.18;95403.34;1787012;80;21015;-59
2021/07/03 07:07:04;;;;;;;1.27;1.17;;;;;;;15.69;82.70;95406.06;1786775;80;21030;-59
2021/07/03 07:09:30;;;;;;;1.87;0.95;;;;;;;15.71;82.31;95407.34;1787094;80;21077;-59
2021/07/03 07:11:58;;;;;;;1.10;1.00;;;;;;;15.78;82.76;95405.69;1787011;80;21465;-59
2021/07/03 07:14:25;;;;;;;1.20;1.10;;;;;;;15.84;82.45;95407.22;1786768;80;21104;-59
2021/07/03 07:16:52;;;;;;;1.67;1.20;;;;;;;15.87;82.15;95411.07;1786810;80;21034;-58
2021/07/03 07:19:18;;;;;;;1.10;1.00;;;;;;;15.92;82.17;95407.75;1786970;80;21039;-59
2021/07/03 07:21:45;;;;;;;1.42;1.30;;;;;;;15.94;81.75;95411.22;1787303;80;20999;-59
2021/07/03 07:24:12;;;;;;;1.50;1.40;;;;;;;15.91;81.67;95409.16;1786816;80;21152;-60
2021/07/03 07:26:39;;;;;;;1.10;1.05;;;;;;;15.94;81.85;95410.36;1786760;80;21018;-59
2021/07/03 07:29:06;;;;;;;0.88;0.88;;;;;;;15.89;81.76;95412.34;1787280;80;20995;-59
2021/07/03 07:31:34;;;;;;;4.33;1.02;;;;;;;15.71;81.33;95406.01;1787077;80;21630;-59
2021/07/03 07:34:02;;;;;;;1.00;0.88;;;;;;;15.66;82.43;95415.47;1787075;80;21106;-59
2021/07/03 07:36:28;;;;;;;1.35;1.07;;;;;;;15.74;82.46;95417.84;1786922;80;21020;-59
2021/07/03 07:38:55;;;;;;;1.87;1.20;;;;;;;15.76;82.16;95412.00;1787295;80;21042;-59
2021/07/03 07:41:21;;;;;;;3.25;1.67;;;;;;;15.82;82.12;95411.73;1786871;80;21058;-59
2021/07/03 07:43:48;;;;;;;1.70;1.50;;;;;;;15.92;81.99;95420.19;1786907;80;21047;-59
2021/07/03 07:46:14;;;;;;;2.62;1.80;;;;;;;15.89;81.66;95421.66;1787372;80;21031;-59
2021/07/03 07:48:41;;;;;;;2.85;2.50;;;;;;;15.90;81.69;95424.70;1787281;80;21519;-59
2021/07/03 07:51:08;;;;;;;4.50;3.22;;;;;;;15.91;81.41;95428.65;1787174;80;21038;-59
2021/07/03 07:53:35;;;;;;;5.35;1.72;;;;;;;15.90;81.15;95427.37;1786997;80;21003;-59
2021/07/03 07:56:01;;;;;;;3.55;1.98;;;;;;;15.81;81.08;95420.66;1786901;80;21062;-59
2021/07/03 07:58:28;;;;;;;2.52;1.60;;;;;;;15.79;81.63;95422.03;1786925;80;21532;-59
2021/07/03 08:00:55;;;;;;;1.27;1.02;;;;;;;15.91;82.12;95418.00;1786924;80;21030;-58
2021/07/03 08:03:22;;;;;;;1.42;1.30;;;;;;;15.87;80.34;95419.52;1786983;80;21069;-59
2021/07/03 08:05:49;;;;;;;4.03;1.67;;;;;;;15.92;80.50;95426.38;1787014;80;21090;-59
2021/07/03 08:08:16;;;;;;;2.83;1.50;;;;;;;15.91;80.18;95422.00;1787043;80;21007;-59
2021/07/03 08:10:43;;;;;;;1.80;1.70;;;;;;;16.06;81.22;95424.95;1786886;80;21062;-58
2021/07/03 08:13:10;;;;;;;2.90;1.60;;;;;;;16.15;81.89;95422.77;1786913;80;21027;-59
2021/07/03 08:15:37;;;;;;;1.45;1.35;;;;;;;16.25;81.24;95425.86;1787193;80;20987;-59
2021/07/03 08:18:05;;;;;;;2.10;1.82;;;;;;;16.26;81.35;95424.95;1786862;80;21018;-59
2021/07/03 08:20:33;;;;;;;2.35;2.08;;;;;;;16.32;81.44;95431.32;1786755;80;21623;-59
2021/07/03 08:23:00;;;;;;;2.67;2.00;;;;;;;16.37;80.98;95433.31;1787305;80;21477;-59
2021/07/03 08:25:27;;;;;;;2.85;2.55;;;;;;;16.41;79.73;95431.41;1787240;80;20979;-59
2021/07/03 08:27:55;;;;;;;3.40;3.10;;;;;;;16.38;79.62;95436.87;1787138;80;21500;-58
2021/07/03 08:30:22;;;;;;;3.50;3.20;;;;;;;16.48;80.08;95436.86;1787220;80;21027;-59
2021/07/03 08:32:51;;;;;;;3.62;3.33;;;;;;;16.47;79.17;95439.11;1787119;80;20979;-59
2021/07/03 08:35:18;;;;;;;5.75;3.55;;;;;;;16.52;79.33;95438.91;1787018;80;20998;-59
2021/07/03 08:37:45;;;;;;;4.53;4.12;;;;;;;16.60;78.97;95440.75;1787315;80;21481;-59
2021/07/03 08:40:15;;;;;;;5.08;4.42;;;;;;;16.70;79.12;95437.22;1786980;80;21007;-59
2021/07/03 08:42:43;;;;;;;4.70;4.22;;;;;;;16.73;79.42;95443.29;1787087;80;21027;-59
2021/07/03 08:45:12;;;;;;;3.95;3.60;;;;;;;16.60;77.57;95445.61;1787396;80;21010;-59
2021/07/03 08:47:42;;;;;;;4.85;4.17;;;;;;;16.44;77.35;95444.10;1787162;80;21015;-58
2021/07/03 08:50:12;;;;;;;5.17;4.17;;;;;;;16.38;78.56;95451.52;1786762;80;21508;-59
2021/07/03 08:52:39;;;;;;;3.60;3.30;;;;;;;16.41;79.23;95448.71;1787170;80;20971;-59
2021/07/03 08:55:17;;;;;;;5.00;3.62;;;;;;;16.46;79.67;95451.17;1787286;80;21481;-59
2021/07/03 08:57:51;;;;;;;5.65;4.40;;;;;;;16.45;80.44;95451.62;1787124;80;21058;-59
2021/07/03 09:00:37;;;;;;;4.50;4.10;;;;;;;16.64;79.53;95455.20;1787359;80;21011;-59
2021/07/03 09:03:20;;;;;;;5.50;5.00;;;;;;;16.64;79.53;95455.20;1787089;80;20966;-59
2021/07/03 09:05:54;;;;;;;6.30;5.25;;;;;;;16.81;80.14;95459.82;1787386;80;21031;-58
2021/07/03 09:08:24;;;;;;;5.25;4.72;;;;;;;16.94;80.16;95453.46;1787198;80;20979;-59
2021/07/03 09:11:05;;;;;;;6.05;5.45;;;;;;;17.02;79.98;95457.11;1786595;80;21520;-59
2021/07/03 09:13:34;;;;;;;6.17;5.45;;;;;;;17.10;80.15;95458.94;1787168;80;20994;-59
2021/07/03 09:16:00;;;;;;;5.25;4.78;;;;;;;17.17;80.65;95458.20;1787142;80;21042;-59
2021/07/03 09:18:29;;;;;;;7.72;6.25;;;;;;;17.27;79.59;95456.83;1786851;80;21022;-59
2021/07/03 09:21:02;;;;;;;6.10;5.55;;;;;;;17.41;78.43;95452.16;1786767;80;21091;-59
2021/07/03 09:23:38;;;;;;;6.08;5.45;;;;;;;17.50;77.80;95461.07;1787197;80;21434;-61
2021/07/03 09:26:09;;;;;;;6.00;5.40;;;;;;;17.64;78.18;95461.72;1787034;80;20987;-59
2021/07/03 09:28:39;;;;;;;4.53;4.12;;;;;;;17.78;78.76;95461.92;1787199;80;21010;-59
2021/07/03 09:31:09;;;;;;;5.10;4.20;;;;;;;17.97;78.50;95467.27;1787051;80;20971;-59
2021/07/03 09:33:46;;;;;;;5.08;4.58;;;;;;;18.20;78.65;95464.78;1787260;80;21457;-59
2021/07/03 09:36:15;;;;;;;6.22;5.72;;;;;;;18.34;76.22;95464.95;1786884;80;21151;-59
2021/07/03 09:38:48;;;;;;;5.10;4.70;;;;;;;18.30;75.50;95460.70;1754380;80;21037;-59
2021/07/03 09:41:28;;;;;;;6.85;6.25;;;;;;;18.38;75.00;95457.16;1787279;80;21050;-59
2021/07/03 09:44:07;;;;;;;7.25;6.53;;;;;;;18.51;74.99;95464.53;1786799;80;21035;-59
2021/07/03 09:46:40;;;;;;;6.95;6.35;;;;;;;18.83;75.16;95468.23;1787028;80;21019;-59
2021/07/03 09:49:10;;;;;;;8.23;7.42;;;;;;;19.09;72.99;95454.79;1787582;80;20999;-59
2021/07/03 09:51:47;;;;;;;7.85;7.15;;;;;;;19.26;73.47;95454.36;1786605;80;20998;-59
2021/07/03 09:54:16;;;;;;;7.87;7.00;;;;;;;19.40;73.42;95458.00;1787313;80;21446;-59
2021/07/03 09:56:44;;;;;;;7.60;6.90;;;;;;;19.30;71.03;95460.77;1787064;80;21003;-59
2021/07/03 09:59:12;;;;;;;7.53;6.92;;;;;;;19.25;70.80;95457.48;1786738;80;21122;-59
2021/07/03 10:01:43;;;;;;;8.75;7.60;;;;;;;19.21;71.57;95455.46;1787148;80;21015;-59
2021/07/03 10:04:11;;;;;;;7.15;6.45;;;;;;;19.39;72.42;95458.07;1786816;80;21532;-59
2021/07/03 10:06:51;;;;;;;6.90;6.30;;;;;;;19.45;69.75;95461.73;1787112;80;21014;-59
2021/07/03 10:09:37;;;;;;;7.17;6.58;;;;;;;19.53;71.45;95457.29;1787199;80;21007;-59
2021/07/03 10:12:10;;;;;;;6.78;5.67;;;;;;;19.69;72.16;95457.34;1786954;80;21488;-59
2021/07/03 10:14:46;;;;;;;6.83;6.00;;;;;;;19.70;68.25;95454.56;1787125;80;21026;-59
2021/07/03 10:17:24;;;;;;;5.78;5.28;;;;;;;19.88;69.66;95445.50;1786528;80;20987;-59
2021/07/03 10:19:51;;;;;;;5.53;5.03;;;;;;;20.15;68.64;95442.63;1789872;80;21066;-59
2021/07/03 10:22:22;;;;;;;6.65;6.05;;;;;;;20.51;68.50;95443.59;1764415;80;20960;-59
2021/07/03 10:24:56;;;;;;;6.03;5.53;;;;;;;20.62;68.01;95443.85;1795518;80;21023;-59
2021/07/03 10:27:29;;;;;;;7.45;6.78;;;;;;;20.62;64.90;95441.66;1794996;80;21582;-59
2021/07/03 10:30:00;;;;;;;6.10;5.58;;;;;;;20.86;67.10;95440.12;1795593;80;20999;-59
2021/07/03 10:32:31;;;;;;;7.08;6.42;;;;;;;20.96;65.07;95439.09;1795456;80;21005;-59
2021/07/03 10:35:13;;;;;;;6.85;6.08;;;;;;;21.03;65.86;95432.39;1764589;80;21515;-59
2021/07/03 10:37:42;;;;;;;6.70;6.15;;;;;;;21.06;63.13;95429.98;1795604;80;20959;-59
2021/07/03 10:40:16;;;;;;;9.90;6.60;;;;;;;21.05;62.90;95435.84;1795626;80;21042;-59
2021/07/03 10:42:44;;;;;;;6.90;6.25;;;;;;;20.97;63.42;95435.47;1795149;80;21043;-59
2021/07/03 10:45:20;;;;;;;6.37;5.55;;;;;;;21.18;64.76;95439.47;1795457;80;21062;-59
2021/07/03 10:47:47;;;;;;;8.93;5.90;;;;;;;21.28;61.34;95432.19;1795353;80;21425;-59
2021/07/03 10:50:29;;;;;;;6.83;6.22;;;;;;;20.93;62.08;95434.77;1795131;80;21025;-59
2021/07/03 10:52:58;;;;;;;6.33;5.83;;;;;;;20.80;62.07;95434.30;1795839;80;20940;-59
2021/07/03 10:55:37;;;;;;;5.75;5.25;;;;;;;20.72;63.94;95435.63;1795300;80;21057;-59
2021/07/03 10:58:20;;;;;;;7.80;7.10;;;;;;;20.67;64.67;95439.07;1795610;80;21468;-59
2021/07/03 11:00:51;;;;;;;6.35;5.40;;;;;;;20.54;64.60;95440.75;1775066;80;21110;-59
2021/07/03 11:03:23;;;;;;;7.47;6.30;;;;;;;20.20;62.54;95433.84;1795056;80;21024;-59
2021/07/03 11:05:51;;;;;;;6.72;6.03;;;;;;;19.85;63.36;95428.24;1795618;80;21019;-59
2021/07/03 11:08:22;;;;;;;6.87;6.22;;;;;;;19.50;64.53;95424.88;1795483;80;21046;-59
2021/07/03 11:10:48;;;;;;;6.58;5.97;;;;;;;19.45;64.82;95434.97;1795132;80;21511;-60
2021/07/03 11:13:22;;;;;;;7.03;6.28;;;;;;;19.19;66.52;95431.94;1795749;80;20979;-59
2021/07/03 11:15:50;;;;;;;7.95;6.95;;;;;;;18.99;65.30;95431.69;1795168;80;21030;-59
2021/07/03 11:18:17;;;;;;;8.93;6.83;;;;;;;18.89;66.30;95441.64;1795598;80;21041;-59
2021/07/03 11:20:45;;;;;;;7.55;5.92;;;;;;;18.93;68.01;95430.70;1789879;80;21054;-59
2021/07/03 11:23:13;;;;;;;6.72;6.12;;;;;;;19.02;67.64;95434.67;1786466;80;21141;-59
2021/07/03 11:25:44;;;;;;;6.58;5.97;;;;;;;19.18;68.91;95429.37;1786875;80;21102;-59
2021/07/03 11:28:21;;;;;;;7.90;6.90;;;;;;;19.39;67.29;95425.97;1786928;80;21015;-59
2021/07/03 11:30:55;;;;;;;5.72;4.97;;;;;;;19.53;68.96;95422.05;1786937;80;21007;-59
2021/07/03 11:33:24;;;;;;;4.90;4.50;;;;;;;19.66;66.94;95428.91;1787196;80;20995;-59
2021/07/03 11:35:51;;;;;;;6.80;5.12;;;;;;;19.66;65.91;95424.41;1786789;80;21007;-58
2021/07/03 11:38:23;;;;;;;4.47;4.08;;;;;;;19.73;66.11;95427.64;1787045;80;21564;-59
2021/07/03 11:40:53;;;;;;;7.03;5.40;;;;;;;19.78;66.28;95424.22;1787285;80;21059;-59